WAT3465 LZIB-LROP
Flight info
| Callsign | WAT3465 |
|---|---|
| Flight time | 1h 8m |
| Altitude | 33000 |
| Route | NIT M748 ERGOM DCT DEGET DCT EKNAB DCT LAMIT DCT TOSVI |
| Aircraft | A320/M-SDE3FGHIRWY/LB1 |
Departure
| Time | 2026-05-04 18:03 |
|---|---|
| Airport | M. R. Štefánik Airport (LZIB) |
Arrival
| Time | 2026-05-04 19:11 |
|---|---|
| Airport | Bucharest Henri Coandă International Airport (LROP) |
| Time | Latitude | Longitude | Altitude | Speed | Heading |
|---|---|---|---|---|---|
| 2026-05-04 17:39 | 48.16889 | 17.20044 | 432 ft | 0 kts | 314° |
| 2026-05-04 17:54 | 48.16885 | 17.20050 | 422 ft | 2 kts | 315° |
| 2026-05-04 17:55 | 48.16871 | 17.20070 | 428 ft | 3 kts | 324° |
| 2026-05-04 17:55 | 48.16853 | 17.20085 | 425 ft | 3 kts | 344° |
| 2026-05-04 17:55 | 48.16835 | 17.20088 | 425 ft | 3 kts | 27° |
| 2026-05-04 17:55 | 48.16829 | 17.20083 | 425 ft | 0 kts | 44° |
| 2026-05-04 17:58 | 48.16854 | 17.20120 | 425 ft | 5 kts | 45° |
| 2026-05-04 17:58 | 48.16885 | 17.20166 | 432 ft | 12 kts | 44° |
| 2026-05-04 17:58 | 48.16965 | 17.20281 | 424 ft | 17 kts | 44° |
| 2026-05-04 17:59 | 48.17046 | 17.20400 | 425 ft | 16 kts | 44° |
| 2026-05-04 17:59 | 48.17122 | 17.20510 | 424 ft | 14 kts | 44° |
| 2026-05-04 17:59 | 48.17235 | 17.20543 | 431 ft | 7 kts | 320° |
| 2026-05-04 18:00 | 48.17274 | 17.20482 | 431 ft | 11 kts | 313° |
| 2026-05-04 18:00 | 48.17323 | 17.20409 | 425 ft | 5 kts | 316° |
| 2026-05-04 18:00 | 48.17347 | 17.20374 | 421 ft | 4 kts | 317° |
| 2026-05-04 18:00 | 48.17378 | 17.20333 | 431 ft | 7 kts | 321° |
| 2026-05-04 18:01 | 48.17415 | 17.20307 | 423 ft | 5 kts | 345° |
| 2026-05-04 18:01 | 48.17449 | 17.20303 | 431 ft | 6 kts | 3° |
| 2026-05-04 18:01 | 48.17497 | 17.20330 | 430 ft | 7 kts | 34° |
| 2026-05-04 18:02 | 48.17540 | 17.20436 | 428 ft | 8 kts | 107° |
| 2026-05-04 18:02 | 48.17455 | 17.20576 | 431 ft | 42 kts | 134° |
| 2026-05-04 18:02 | 48.17087 | 17.21147 | 422 ft | 108 kts | 134° |
| 2026-05-04 18:02 | 48.16438 | 17.22154 | 428 ft | 159 kts | 134° |
| 2026-05-04 18:03 | 48.15688 | 17.23322 | 1087 ft | 152 kts | 135° |
| 2026-05-04 18:03 | 48.14945 | 17.24469 | 1715 ft | 157 kts | 139° |
| 2026-05-04 18:03 | 48.14138 | 17.25695 | 2064 ft | 175 kts | 140° |
| 2026-05-04 18:03 | 48.13218 | 17.27067 | 2351 ft | 199 kts | 140° |
| 2026-05-04 18:04 | 48.12161 | 17.28623 | 2651 ft | 226 kts | 139° |
| 2026-05-04 18:04 | 48.11147 | 17.30582 | 3157 ft | 249 kts | 126° |
| 2026-05-04 18:04 | 48.09384 | 17.35247 | 4759 ft | 264 kts | 123° |
| 2026-05-04 18:05 | 48.08495 | 17.37680 | 5591 ft | 269 kts | 122° |
| 2026-05-04 18:05 | 48.07577 | 17.40153 | 6374 ft | 276 kts | 122° |
| 2026-05-04 18:05 | 48.06627 | 17.42681 | 7127 ft | 281 kts | 122° |
| 2026-05-04 18:05 | 48.05660 | 17.45238 | 7932 ft | 285 kts | 122° |
| 2026-05-04 18:06 | 48.03676 | 17.50439 | 9569 ft | 291 kts | 122° |
| 2026-05-04 18:06 | 48.02662 | 17.53085 | 10305 ft | 297 kts | 122° |
| 2026-05-04 18:06 | 48.01594 | 17.55865 | 10559 ft | 320 kts | 122° |
| 2026-05-04 18:07 | 48.00458 | 17.58811 | 10756 ft | 343 kts | 122° |
| 2026-05-04 18:07 | 47.99239 | 17.61977 | 11085 ft | 358 kts | 122° |
| 2026-05-04 18:07 | 47.97988 | 17.65237 | 11697 ft | 365 kts | 122° |
| 2026-05-04 18:07 | 47.96727 | 17.68529 | 11930 ft | 366 kts | 122° |
| 2026-05-04 18:08 | 47.95464 | 17.71827 | 11990 ft | 366 kts | 122° |
| 2026-05-04 18:08 | 47.94190 | 17.75143 | 12485 ft | 370 kts | 122° |
| 2026-05-04 18:08 | 47.92900 | 17.78470 | 13240 ft | 371 kts | 123° |
| 2026-05-04 18:08 | 47.91519 | 17.81744 | 13933 ft | 374 kts | 126° |
| 2026-05-04 18:09 | 47.88547 | 17.88186 | 15125 ft | 381 kts | 127° |
| 2026-05-04 18:09 | 47.85472 | 17.94694 | 16303 ft | 388 kts | 127° |
| 2026-05-04 18:10 | 47.83925 | 17.98011 | 16892 ft | 392 kts | 126° |
| 2026-05-04 18:10 | 47.82376 | 18.01368 | 17472 ft | 395 kts | 126° |
| 2026-05-04 18:10 | 47.80819 | 18.04762 | 18064 ft | 399 kts | 126° |
| 2026-05-04 18:10 | 47.79248 | 18.08184 | 18601 ft | 402 kts | 126° |
| 2026-05-04 18:11 | 47.77666 | 18.11624 | 19107 ft | 405 kts | 126° |
| 2026-05-04 18:11 | 47.76062 | 18.15097 | 19605 ft | 409 kts | 126° |
| 2026-05-04 18:11 | 47.74442 | 18.18597 | 20100 ft | 413 kts | 126° |
| 2026-05-04 18:11 | 47.72815 | 18.22120 | 20584 ft | 416 kts | 126° |
| 2026-05-04 18:12 | 47.71227 | 18.25549 | 21035 ft | 419 kts | 126° |
| 2026-05-04 18:12 | 47.69564 | 18.29125 | 21514 ft | 422 kts | 126° |
| 2026-05-04 18:12 | 47.67887 | 18.32723 | 21968 ft | 425 kts | 126° |
| 2026-05-04 18:12 | 47.66200 | 18.36337 | 22418 ft | 428 kts | 126° |
| 2026-05-04 18:13 | 47.64498 | 18.39981 | 22860 ft | 431 kts | 125° |
| 2026-05-04 18:13 | 47.62785 | 18.43652 | 23287 ft | 434 kts | 125° |
| 2026-05-04 18:13 | 47.59329 | 18.51049 | 24042 ft | 439 kts | 125° |
| 2026-05-04 18:14 | 47.57607 | 18.54732 | 24376 ft | 442 kts | 125° |
| 2026-05-04 18:14 | 47.55828 | 18.58532 | 24717 ft | 444 kts | 125° |
| 2026-05-04 18:14 | 47.54086 | 18.62249 | 25047 ft | 446 kts | 125° |
| 2026-05-04 18:15 | 47.50531 | 18.69812 | 25709 ft | 450 kts | 125° |
| 2026-05-04 18:15 | 47.46924 | 18.77437 | 26335 ft | 454 kts | 125° |
| 2026-05-04 18:15 | 47.45110 | 18.81261 | 26651 ft | 456 kts | 125° |
| 2026-05-04 18:16 | 47.43284 | 18.85106 | 26948 ft | 458 kts | 125° |
| 2026-05-04 18:16 | 47.41452 | 18.88963 | 27242 ft | 460 kts | 124° |
| 2026-05-04 18:16 | 47.39611 | 18.92835 | 27526 ft | 461 kts | 124° |
| 2026-05-04 18:17 | 47.35902 | 19.00620 | 28053 ft | 465 kts | 124° |
| 2026-05-04 18:17 | 47.34041 | 19.04527 | 28299 ft | 467 kts | 124° |
| 2026-05-04 18:17 | 47.30286 | 19.12398 | 28760 ft | 471 kts | 124° |
| 2026-05-04 18:18 | 47.28392 | 19.16357 | 29025 ft | 472 kts | 124° |
| 2026-05-04 18:18 | 47.26503 | 19.20295 | 29354 ft | 471 kts | 124° |
| 2026-05-04 18:18 | 47.24609 | 19.24237 | 29675 ft | 471 kts | 124° |
| 2026-05-04 18:18 | 47.22742 | 19.28122 | 30000 ft | 471 kts | 124° |
| 2026-05-04 18:19 | 47.19079 | 19.35717 | 32033 ft | 433 kts | 124° |
| 2026-05-04 18:19 | 47.17347 | 19.39301 | 32668 ft | 429 kts | 124° |
| 2026-05-04 18:19 | 47.15613 | 19.42880 | 32941 ft | 431 kts | 124° |
| 2026-05-04 18:20 | 47.13862 | 19.46494 | 33047 ft | 437 kts | 124° |
| 2026-05-04 18:20 | 47.12083 | 19.50158 | 33058 ft | 445 kts | 124° |
| 2026-05-04 18:20 | 47.08451 | 19.57637 | 33056 ft | 459 kts | 124° |
| 2026-05-04 18:21 | 47.04714 | 19.65296 | 33058 ft | 463 kts | 124° |
| 2026-05-04 18:21 | 47.00958 | 19.72990 | 33058 ft | 464 kts | 124° |
| 2026-05-04 18:22 | 46.97195 | 19.80670 | 33056 ft | 464 kts | 124° |
| 2026-05-04 18:22 | 46.93416 | 19.88348 | 33054 ft | 465 kts | 124° |
| 2026-05-04 18:23 | 46.89636 | 19.96007 | 33052 ft | 465 kts | 124° |
| 2026-05-04 18:23 | 46.85857 | 20.03661 | 33049 ft | 465 kts | 124° |
| 2026-05-04 18:24 | 46.82069 | 20.11313 | 33050 ft | 465 kts | 124° |
| 2026-05-04 18:24 | 46.78918 | 20.17660 | 33052 ft | 465 kts | 124° |
| 2026-05-04 18:25 | 46.75114 | 20.25294 | 33053 ft | 465 kts | 124° |
| 2026-05-04 18:25 | 46.71305 | 20.32908 | 33050 ft | 465 kts | 124° |
| 2026-05-04 18:26 | 46.67490 | 20.40516 | 33052 ft | 465 kts | 124° |
| 2026-05-04 18:26 | 46.63669 | 20.48128 | 33056 ft | 465 kts | 124° |
| 2026-05-04 18:27 | 46.59847 | 20.55723 | 33056 ft | 466 kts | 124° |
| 2026-05-04 18:27 | 46.56009 | 20.63316 | 33059 ft | 466 kts | 124° |
| 2026-05-04 18:28 | 46.52169 | 20.70893 | 33056 ft | 466 kts | 124° |
| 2026-05-04 18:28 | 46.48326 | 20.78480 | 33058 ft | 466 kts | 123° |
| 2026-05-04 18:29 | 46.44473 | 20.86054 | 33058 ft | 466 kts | 123° |
| 2026-05-04 18:29 | 46.40615 | 20.93607 | 33065 ft | 466 kts | 123° |
| 2026-05-04 18:30 | 46.34835 | 21.04880 | 33069 ft | 467 kts | 123° |
| 2026-05-04 18:31 | 46.30961 | 21.12409 | 33071 ft | 467 kts | 124° |
| 2026-05-04 18:31 | 46.27081 | 21.19944 | 33070 ft | 467 kts | 123° |
| 2026-05-04 18:32 | 46.23202 | 21.27464 | 33072 ft | 467 kts | 123° |
| 2026-05-04 18:32 | 46.19310 | 21.34979 | 33071 ft | 467 kts | 124° |
| 2026-05-04 18:33 | 46.15419 | 21.42479 | 33073 ft | 467 kts | 124° |
| 2026-05-04 18:33 | 46.11514 | 21.49972 | 33076 ft | 467 kts | 124° |
| 2026-05-04 18:34 | 46.07606 | 21.57443 | 33078 ft | 467 kts | 124° |
| 2026-05-04 18:34 | 46.03699 | 21.64903 | 33098 ft | 463 kts | 124° |
| 2026-05-04 18:35 | 45.99844 | 21.72235 | 33089 ft | 459 kts | 124° |
| 2026-05-04 18:35 | 45.96000 | 21.79542 | 33093 ft | 458 kts | 124° |
| 2026-05-04 18:36 | 45.92180 | 21.86797 | 33075 ft | 458 kts | 124° |
| 2026-05-04 18:36 | 45.88328 | 21.94073 | 33097 ft | 458 kts | 124° |
| 2026-05-04 18:37 | 45.84470 | 22.01344 | 33086 ft | 457 kts | 124° |
| 2026-05-04 18:37 | 45.80620 | 22.08594 | 33099 ft | 457 kts | 125° |
| 2026-05-04 18:38 | 45.76757 | 22.15834 | 33088 ft | 457 kts | 125° |
| 2026-05-04 18:38 | 45.72891 | 22.23049 | 33100 ft | 457 kts | 125° |
| 2026-05-04 18:39 | 45.69025 | 22.30266 | 33097 ft | 457 kts | 125° |
| 2026-05-04 18:39 | 45.65158 | 22.37460 | 33111 ft | 456 kts | 125° |
| 2026-05-04 18:40 | 45.61293 | 22.44643 | 33108 ft | 456 kts | 125° |
| 2026-05-04 18:40 | 45.57416 | 22.51820 | 33114 ft | 456 kts | 125° |
| 2026-05-04 18:41 | 45.53536 | 22.58978 | 33116 ft | 456 kts | 125° |
| 2026-05-04 18:41 | 45.49659 | 22.66127 | 33107 ft | 456 kts | 125° |
| 2026-05-04 18:42 | 45.45775 | 22.73268 | 33115 ft | 455 kts | 126° |
| 2026-05-04 18:42 | 45.41888 | 22.80380 | 33118 ft | 455 kts | 126° |
| 2026-05-04 18:43 | 45.38000 | 22.87499 | 33108 ft | 455 kts | 126° |
| 2026-05-04 18:43 | 45.34109 | 22.94596 | 33105 ft | 455 kts | 126° |
| 2026-05-04 18:44 | 45.30232 | 23.01633 | 33101 ft | 455 kts | 126° |
| 2026-05-04 18:44 | 45.26337 | 23.08711 | 33091 ft | 455 kts | 126° |
| 2026-05-04 18:45 | 45.22431 | 23.15785 | 33095 ft | 455 kts | 126° |
| 2026-05-04 18:45 | 45.18522 | 23.22836 | 33087 ft | 455 kts | 126° |
| 2026-05-04 18:46 | 45.14601 | 23.29879 | 33085 ft | 455 kts | 126° |
| 2026-05-04 18:46 | 45.10983 | 23.37178 | 33079 ft | 452 kts | 115° |
| 2026-05-04 18:47 | 45.08889 | 23.45476 | 33079 ft | 448 kts | 102° |
| 2026-05-04 18:47 | 45.07301 | 23.54002 | 33074 ft | 448 kts | 103° |
| 2026-05-04 18:47 | 45.06493 | 23.58273 | 32838 ft | 450 kts | 103° |
| 2026-05-04 18:48 | 45.05680 | 23.62546 | 32045 ft | 453 kts | 104° |
| 2026-05-04 18:48 | 45.04861 | 23.66836 | 31425 ft | 450 kts | 104° |
| 2026-05-04 18:48 | 45.04050 | 23.71090 | 30801 ft | 447 kts | 104° |
| 2026-05-04 18:48 | 45.03243 | 23.75321 | 30184 ft | 444 kts | 105° |
| 2026-05-04 18:49 | 45.02441 | 23.79522 | 29520 ft | 443 kts | 105° |
| 2026-05-04 18:49 | 45.01639 | 23.83703 | 29062 ft | 436 kts | 105° |
| 2026-05-04 18:49 | 45.00864 | 23.87736 | 28732 ft | 427 kts | 105° |
| 2026-05-04 18:49 | 45.00091 | 23.91753 | 28266 ft | 421 kts | 105° |
| 2026-05-04 18:50 | 44.99324 | 23.95731 | 27770 ft | 417 kts | 105° |
| 2026-05-04 18:50 | 44.98514 | 23.99649 | 27266 ft | 414 kts | 107° |
| 2026-05-04 18:50 | 44.97649 | 24.03499 | 26772 ft | 410 kts | 108° |
| 2026-05-04 18:50 | 44.96750 | 24.07307 | 26301 ft | 407 kts | 108° |
| 2026-05-04 18:51 | 44.95846 | 24.11075 | 25841 ft | 403 kts | 108° |
| 2026-05-04 18:51 | 44.94955 | 24.14802 | 25399 ft | 400 kts | 108° |
| 2026-05-04 18:51 | 44.94076 | 24.18507 | 24954 ft | 396 kts | 107° |
| 2026-05-04 18:51 | 44.93212 | 24.22183 | 24527 ft | 393 kts | 107° |
| 2026-05-04 18:52 | 44.92362 | 24.25831 | 24093 ft | 389 kts | 106° |
| 2026-05-04 18:52 | 44.91526 | 24.29440 | 23676 ft | 386 kts | 106° |
| 2026-05-04 18:52 | 44.90693 | 24.33033 | 23211 ft | 382 kts | 106° |
| 2026-05-04 18:52 | 44.89870 | 24.36573 | 22738 ft | 379 kts | 105° |
| 2026-05-04 18:53 | 44.89051 | 24.40086 | 22291 ft | 375 kts | 105° |
| 2026-05-04 18:53 | 44.88237 | 24.43562 | 21851 ft | 371 kts | 105° |
| 2026-05-04 18:53 | 44.87429 | 24.46996 | 21422 ft | 368 kts | 105° |
| 2026-05-04 18:53 | 44.86627 | 24.50403 | 20997 ft | 364 kts | 105° |
| 2026-05-04 18:54 | 44.85832 | 24.53776 | 20576 ft | 361 kts | 105° |
| 2026-05-04 18:54 | 44.85044 | 24.57116 | 20166 ft | 357 kts | 105° |
| 2026-05-04 18:54 | 44.84263 | 24.60414 | 19778 ft | 354 kts | 105° |
| 2026-05-04 18:54 | 44.83488 | 24.63685 | 19384 ft | 350 kts | 105° |
| 2026-05-04 18:55 | 44.82731 | 24.66881 | 19014 ft | 347 kts | 105° |
| 2026-05-04 18:55 | 44.81217 | 24.73253 | 18135 ft | 343 kts | 105° |
| 2026-05-04 18:55 | 44.80455 | 24.76454 | 17514 ft | 345 kts | 105° |
| 2026-05-04 18:56 | 44.79694 | 24.79651 | 17022 ft | 343 kts | 105° |
| 2026-05-04 18:56 | 44.78938 | 24.82819 | 16582 ft | 341 kts | 105° |
| 2026-05-04 18:56 | 44.78184 | 24.85970 | 16142 ft | 338 kts | 105° |
| 2026-05-04 18:56 | 44.77436 | 24.89100 | 15717 ft | 336 kts | 105° |
| 2026-05-04 18:57 | 44.76693 | 24.92208 | 15396 ft | 335 kts | 105° |
| 2026-05-04 18:57 | 44.75953 | 24.95304 | 15144 ft | 334 kts | 105° |
| 2026-05-04 18:57 | 44.75212 | 24.98398 | 14762 ft | 333 kts | 105° |
| 2026-05-04 18:57 | 44.74472 | 25.01473 | 14329 ft | 331 kts | 105° |
| 2026-05-04 18:58 | 44.73737 | 25.04527 | 13888 ft | 330 kts | 105° |
| 2026-05-04 18:58 | 44.73003 | 25.07574 | 13427 ft | 328 kts | 105° |
| 2026-05-04 18:58 | 44.72272 | 25.10599 | 12980 ft | 325 kts | 104° |
| 2026-05-04 18:58 | 44.71543 | 25.13605 | 12549 ft | 324 kts | 104° |
| 2026-05-04 18:59 | 44.70817 | 25.16596 | 12092 ft | 323 kts | 104° |
| 2026-05-04 18:59 | 44.70094 | 25.19557 | 11844 ft | 315 kts | 104° |
| 2026-05-04 18:59 | 44.69394 | 25.22412 | 11696 ft | 303 kts | 104° |
| 2026-05-04 18:59 | 44.68721 | 25.25164 | 11520 ft | 291 kts | 104° |
| 2026-05-04 19:00 | 44.68070 | 25.27822 | 10986 ft | 285 kts | 103° |
| 2026-05-04 19:00 | 44.67437 | 25.30415 | 10368 ft | 283 kts | 103° |
| 2026-05-04 19:00 | 44.66793 | 25.33075 | 9869 ft | 285 kts | 103° |
| 2026-05-04 19:00 | 44.66164 | 25.35664 | 9569 ft | 280 kts | 103° |
| 2026-05-04 19:01 | 44.65538 | 25.38216 | 9264 ft | 276 kts | 103° |
| 2026-05-04 19:01 | 44.64914 | 25.40783 | 8771 ft | 279 kts | 103° |
| 2026-05-04 19:01 | 44.64293 | 25.43323 | 8555 ft | 266 kts | 103° |
| 2026-05-04 19:01 | 44.63695 | 25.45732 | 8148 ft | 256 kts | 103° |
| 2026-05-04 19:02 | 44.63113 | 25.48091 | 7757 ft | 254 kts | 103° |
| 2026-05-04 19:02 | 44.62539 | 25.50429 | 7420 ft | 252 kts | 103° |
| 2026-05-04 19:02 | 44.61976 | 25.52717 | 7240 ft | 243 kts | 103° |
| 2026-05-04 19:02 | 44.61435 | 25.54909 | 7127 ft | 233 kts | 103° |
| 2026-05-04 19:03 | 44.60910 | 25.57037 | 7038 ft | 229 kts | 103° |
| 2026-05-04 19:03 | 44.60389 | 25.59148 | 7046 ft | 228 kts | 103° |
| 2026-05-04 19:03 | 44.59882 | 25.61181 | 7039 ft | 214 kts | 103° |
| 2026-05-04 19:03 | 44.59400 | 25.63121 | 7043 ft | 209 kts | 102° |
| 2026-05-04 19:04 | 44.58929 | 25.65037 | 7047 ft | 207 kts | 102° |
| 2026-05-04 19:04 | 44.58461 | 25.66939 | 6868 ft | 206 kts | 102° |
| 2026-05-04 19:04 | 44.57993 | 25.68833 | 6580 ft | 206 kts | 103° |
| 2026-05-04 19:04 | 44.57525 | 25.70725 | 6197 ft | 204 kts | 103° |
| 2026-05-04 19:05 | 44.57063 | 25.72592 | 5705 ft | 202 kts | 104° |
| 2026-05-04 19:05 | 44.56610 | 25.74426 | 5122 ft | 201 kts | 105° |
| 2026-05-04 19:05 | 44.56151 | 25.76280 | 4531 ft | 201 kts | 106° |
| 2026-05-04 19:05 | 44.55692 | 25.78125 | 3948 ft | 201 kts | 107° |
| 2026-05-04 19:06 | 44.55232 | 25.79960 | 3608 ft | 195 kts | 107° |
| 2026-05-04 19:06 | 44.54793 | 25.81704 | 3404 ft | 182 kts | 107° |
| 2026-05-04 19:06 | 44.54600 | 25.83424 | 3278 ft | 179 kts | 87° |
| 2026-05-04 19:06 | 44.54714 | 25.85126 | 3128 ft | 173 kts | 82° |
| 2026-05-04 19:07 | 44.54849 | 25.86787 | 2944 ft | 170 kts | 82° |
| 2026-05-04 19:07 | 44.54979 | 25.88431 | 2756 ft | 170 kts | 82° |
| 2026-05-04 19:07 | 44.55108 | 25.90077 | 2544 ft | 170 kts | 82° |
| 2026-05-04 19:07 | 44.55236 | 25.91723 | 2357 ft | 170 kts | 82° |
| 2026-05-04 19:08 | 44.55364 | 25.93371 | 2150 ft | 169 kts | 83° |
| 2026-05-04 19:08 | 44.55492 | 25.95015 | 1955 ft | 172 kts | 83° |
| 2026-05-04 19:08 | 44.55624 | 25.96685 | 1797 ft | 169 kts | 83° |
| 2026-05-04 19:08 | 44.55747 | 25.98265 | 1561 ft | 159 kts | 84° |
| 2026-05-04 19:09 | 44.55858 | 25.99778 | 1332 ft | 153 kts | 84° |
| 2026-05-04 19:09 | 44.55970 | 26.01224 | 1165 ft | 147 kts | 84° |
| 2026-05-04 19:09 | 44.56080 | 26.02616 | 1020 ft | 142 kts | 85° |
| 2026-05-04 19:09 | 44.56180 | 26.03988 | 906 ft | 142 kts | 86° |
| 2026-05-04 19:10 | 44.56283 | 26.05386 | 728 ft | 144 kts | 85° |
| 2026-05-04 19:10 | 44.56397 | 26.06756 | 517 ft | 143 kts | 85° |
| 2026-05-04 19:10 | 44.56502 | 26.08132 | 328 ft | 140 kts | 86° |
| 2026-05-04 19:10 | 44.56591 | 26.09324 | 316 ft | 101 kts | 84° |
| 2026-05-04 19:11 | 44.56647 | 26.10065 | 318 ft | 53 kts | 84° |
| 2026-05-04 19:11 | 44.56682 | 26.10524 | 319 ft | 31 kts | 84° |
| 2026-05-04 19:11 | 44.56712 | 26.10721 | 319 ft | 15 kts | 61° |
| 2026-05-04 19:11 | 44.56762 | 26.10767 | 322 ft | 6 kts | 6° |
| 2026-05-04 19:12 | 44.56784 | 26.10765 | 322 ft | 7 kts | 356° |
| 2026-05-04 19:12 | 44.56927 | 26.10745 | 325 ft | 7 kts | 354° |
| 2026-05-04 19:12 | 44.56971 | 26.10730 | 328 ft | 6 kts | 338° |
| 2026-05-04 19:13 | 44.57002 | 26.10702 | 326 ft | 5 kts | 319° |
| 2026-05-04 19:13 | 44.57026 | 26.10657 | 326 ft | 7 kts | 300° |
| 2026-05-04 19:13 | 44.57062 | 26.10556 | 327 ft | 16 kts | 283° |
| 2026-05-04 19:13 | 44.57058 | 26.10409 | 328 ft | 15 kts | 265° |
| 2026-05-04 19:14 | 44.57047 | 26.10263 | 326 ft | 16 kts | 264° |
| 2026-05-04 19:14 | 44.57035 | 26.10104 | 326 ft | 17 kts | 264° |
| 2026-05-04 19:14 | 44.57023 | 26.09942 | 328 ft | 17 kts | 264° |
| 2026-05-04 19:14 | 44.57010 | 26.09772 | 325 ft | 19 kts | 264° |
| 2026-05-04 19:15 | 44.56996 | 26.09583 | 328 ft | 20 kts | 264° |
| 2026-05-04 19:15 | 44.56980 | 26.09376 | 328 ft | 22 kts | 263° |
| 2026-05-04 19:15 | 44.56964 | 26.09155 | 327 ft | 23 kts | 264° |
| 2026-05-04 19:15 | 44.56948 | 26.08932 | 324 ft | 22 kts | 263° |
| 2026-05-04 19:16 | 44.56935 | 26.08759 | 328 ft | 17 kts | 264° |
| 2026-05-04 19:16 | 44.56922 | 26.08615 | 325 ft | 13 kts | 259° |
| 2026-05-04 19:16 | 44.56898 | 26.08486 | 327 ft | 13 kts | 255° |
| 2026-05-04 19:16 | 44.56901 | 26.08417 | 328 ft | 6 kts | 307° |
| 2026-05-04 19:17 | 44.56936 | 26.08399 | 328 ft | 5 kts | 336° |
| 2026-05-04 19:17 | 44.56951 | 26.08359 | 325 ft | 5 kts | 272° |
| 2026-05-04 19:17 | 44.56945 | 26.08293 | 326 ft | 8 kts | 264° |
| 2026-05-04 19:17 | 44.56939 | 26.08208 | 328 ft | 10 kts | 264° |
| 2026-05-04 19:18 | 44.56934 | 26.08143 | 324 ft | 11 kts | 264° |
| 2026-05-04 19:18 | 44.56932 | 26.08046 | 326 ft | 8 kts | 289° |
| 2026-05-04 19:18 | 44.56978 | 26.08033 | 324 ft | 4 kts | 0° |
| 2026-05-04 19:18 | 44.56998 | 26.08029 | 327 ft | 3 kts | 351° |
| 2026-05-04 19:19 | 44.57011 | 26.08027 | 326 ft | 1 kts | 351° |
| 2026-05-04 19:19 | 44.57012 | 26.08027 | 326 ft | 0 kts | 351° |